createdAt,value
2022-09-30T00:04:33.629Z,463.51
2022-09-30T00:09:40.958Z,463.14
2022-09-30T00:14:48.147Z,462.96
2022-09-30T00:19:55.326Z,463.17
2022-09-30T00:25:02.476Z,463.34
2022-09-30T00:30:09.706Z,463.82
2022-09-30T00:35:20.514Z,463.25
2022-09-30T00:40:24.066Z,462.97
2022-09-30T00:45:31.259Z,462.56
2022-09-30T00:50:38.463Z,462.64
2022-09-30T00:55:45.667Z,462.04
2022-09-30T01:00:53.007Z,461.82
2022-09-30T01:06:00.140Z,461.78
2022-09-30T01:11:08.491Z,461.35
2022-09-30T01:16:14.729Z,460.65
2022-09-30T01:21:21.744Z,460.81
2022-09-30T01:26:29.006Z,460.11
2022-09-30T01:31:36.362Z,460.35
2022-09-30T01:36:43.423Z,460.68
2022-09-30T01:41:50.608Z,460.98
2022-09-30T01:46:57.890Z,460.75
2022-09-30T01:52:04.977Z,460.59
2022-09-30T01:57:12.179Z,460.49
2022-09-30T02:02:19.631Z,460.46
2022-09-30T02:07:26.653Z,459.78
2022-09-30T02:12:33.831Z,459.38
2022-09-30T02:17:41.055Z,459.10
2022-09-30T02:22:48.227Z,459.42
2022-09-30T02:27:55.471Z,458.84
2022-09-30T02:33:02.737Z,458.72
2022-09-30T02:38:09.933Z,458.19
2022-09-30T02:43:17.183Z,458.99
2022-09-30T02:48:24.522Z,458.31
2022-09-30T02:53:31.673Z,458.48
2022-09-30T02:58:38.912Z,457.62
2022-09-30T03:03:46.138Z,457.73
2022-09-30T03:08:53.399Z,457.30
2022-09-30T03:14:00.588Z,457.39
2022-09-30T03:19:07.841Z,456.93
2022-09-30T03:24:15.030Z,457.18
2022-09-30T03:29:22.324Z,456.63
2022-09-30T03:34:29.521Z,456.05
2022-09-30T03:39:36.761Z,456.44
2022-09-30T03:44:43.975Z,455.55
2022-09-30T03:49:51.191Z,455.28
2022-09-30T03:54:58.333Z,454.30
2022-09-30T04:00:05.573Z,453.95
2022-09-30T04:05:12.848Z,453.68
2022-09-30T04:10:20.026Z,453.69
2022-09-30T04:15:27.260Z,453.94
2022-09-30T04:20:34.488Z,453.37
2022-09-30T04:25:41.688Z,452.97
2022-09-30T04:30:48.959Z,452.79
2022-09-30T04:35:56.235Z,452.92
2022-09-30T04:41:03.388Z,452.86
2022-09-30T04:46:10.659Z,452.78
2022-09-30T04:51:17.816Z,452.77
2022-09-30T04:56:25.003Z,453.18
2022-09-30T05:01:32.213Z,452.38
2022-09-30T05:06:39.429Z,452.85
2022-09-30T05:11:46.616Z,452.47
2022-09-30T05:16:53.819Z,451.22
2022-09-30T05:22:01.040Z,450.24
2022-09-30T05:27:08.294Z,449.93
2022-09-30T05:32:15.534Z,448.76
2022-09-30T05:37:22.766Z,447.36
2022-09-30T05:42:29.980Z,447.53
2022-09-30T05:47:37.261Z,447.45
2022-09-30T05:52:44.581Z,446.94
2022-09-30T05:57:51.669Z,446.83
2022-09-30T06:02:58.954Z,446.23
2022-09-30T06:08:06.091Z,444.67
2022-09-30T06:13:13.275Z,443.45
2022-09-30T06:18:20.505Z,443.45
2022-09-30T06:23:27.728Z,443.27
2022-09-30T06:28:34.883Z,443.30
2022-09-30T06:33:42.150Z,443.81
2022-09-30T06:38:49.394Z,443.62
2022-09-30T06:44:10.166Z,443.63
2022-09-30T06:49:12.999Z,443.58
2022-09-30T06:54:11.163Z,442.57
2022-09-30T06:59:18.437Z,441.69
2022-09-30T07:04:25.535Z,441.49
2022-09-30T07:09:32.837Z,440.84
2022-09-30T07:14:39.980Z,440.33
2022-09-30T07:19:47.263Z,438.92
2022-09-30T07:24:54.511Z,439.30
2022-09-30T07:30:10.176Z,439.94
2022-09-30T07:35:08.836Z,440.87
2022-09-30T07:40:16.136Z,440.16
2022-09-30T07:45:23.298Z,439.63
2022-09-30T07:50:30.513Z,439.43
2022-09-30T07:55:37.705Z,439.32
2022-09-30T08:00:45.029Z,438.49
2022-09-30T08:05:52.092Z,437.58
2022-09-30T08:10:59.390Z,436.74
2022-09-30T08:16:06.651Z,436.36
2022-09-30T08:21:13.807Z,436.16
2022-09-30T08:26:21.004Z,435.88
2022-09-30T08:31:28.348Z,435.35
2022-09-30T08:36:35.517Z,434.69
2022-09-30T08:41:42.745Z,434.37
2022-09-30T08:46:52.690Z,434.33
2022-09-30T08:51:57.115Z,433.84
2022-09-30T08:57:04.325Z,433.14
2022-09-30T09:02:15.230Z,432.46
2022-09-30T09:07:18.680Z,431.53
2022-09-30T09:12:25.874Z,431.50
2022-09-30T09:17:33.058Z,430.54
2022-09-30T09:22:40.250Z,430.49
2022-09-30T09:27:47.543Z,430.00
2022-09-30T09:32:54.685Z,429.67
2022-09-30T09:38:01.862Z,429.05
2022-09-30T09:43:09.064Z,429.40
2022-09-30T09:48:16.271Z,428.95
2022-09-30T09:53:23.481Z,428.79
2022-09-30T09:58:30.727Z,428.29
2022-09-30T10:03:37.917Z,428.12
2022-09-30T10:08:45.155Z,427.73
2022-09-30T10:13:52.435Z,427.08
2022-09-30T10:18:59.626Z,426.29
2022-09-30T10:24:06.813Z,426.22
2022-09-30T10:29:14.054Z,425.64
2022-09-30T10:34:21.194Z,425.72
2022-09-30T10:39:28.424Z,424.96
2022-09-30T10:44:35.622Z,425.09
2022-09-30T10:49:42.797Z,424.72
2022-09-30T10:54:49.975Z,424.52
2022-09-30T10:59:57.165Z,423.90
2022-09-30T11:05:04.376Z,422.93
2022-09-30T11:10:11.577Z,422.19
2022-09-30T11:15:18.839Z,421.35
2022-09-30T11:20:26.063Z,422.32
2022-09-30T11:25:33.240Z,422.52
2022-09-30T11:30:40.554Z,422.35
2022-09-30T11:35:47.704Z,422.41
2022-09-30T11:40:54.965Z,422.48
2022-09-30T11:46:02.227Z,421.98
2022-09-30T11:51:09.448Z,422.28
2022-09-30T11:56:16.726Z,421.52
2022-09-30T12:01:24.065Z,422.05
2022-09-30T12:06:31.736Z,421.64
2022-09-30T12:11:38.450Z,421.58
2022-09-30T12:16:45.783Z,421.38
2022-09-30T12:21:53.842Z,421.38
2022-09-30T12:27:01.279Z,420.83
2022-09-30T12:32:08.831Z,420.79
2022-09-30T12:37:15.875Z,420.25
2022-09-30T12:42:23.118Z,419.78
2022-09-30T12:47:30.369Z,420.17
2022-09-30T12:52:37.590Z,420.22
2022-09-30T12:57:44.811Z,420.67
2022-09-30T13:02:52.079Z,420.75
2022-09-30T13:07:59.206Z,421.11
2022-09-30T13:13:06.425Z,420.73
2022-09-30T13:18:13.641Z,421.54
2022-09-30T13:23:20.820Z,421.70
2022-09-30T13:28:28.104Z,422.44
2022-09-30T13:33:35.598Z,422.42
2022-09-30T13:38:42.759Z,422.79
2022-09-30T13:43:49.918Z,422.55
2022-09-30T13:48:57.179Z,422.50
2022-09-30T13:54:04.357Z,422.44
2022-09-30T13:59:11.576Z,422.53
2022-09-30T14:04:18.782Z,421.99
2022-09-30T14:09:25.973Z,421.67
2022-09-30T14:14:33.172Z,420.77
2022-09-30T14:19:40.407Z,420.86
2022-09-30T14:24:47.583Z,421.33
2022-09-30T14:29:54.859Z,420.97
2022-09-30T14:35:02.089Z,420.85
2022-09-30T14:40:09.221Z,420.21
2022-09-30T14:45:16.430Z,420.14
2022-09-30T14:50:23.669Z,419.99
2022-09-30T14:55:30.866Z,419.10
2022-09-30T15:00:38.033Z,418.85
2022-09-30T15:05:45.260Z,418.55
2022-09-30T15:10:52.448Z,418.80
2022-09-30T15:15:59.684Z,418.91
2022-09-30T15:21:06.876Z,418.76
2022-09-30T15:26:14.061Z,418.49
2022-09-30T15:31:21.587Z,417.73
2022-09-30T15:36:29.100Z,417.52
2022-09-30T15:41:36.192Z,416.52
2022-09-30T15:46:43.422Z,416.66
2022-09-30T15:51:50.680Z,415.68
2022-09-30T15:56:57.834Z,415.08
2022-09-30T16:02:05.664Z,414.43
2022-09-30T16:07:12.851Z,414.43
2022-09-30T16:12:20.121Z,413.56
2022-09-30T16:17:27.331Z,413.67
2022-09-30T16:22:34.697Z,413.00
2022-09-30T16:27:41.935Z,413.46
2022-09-30T16:32:49.062Z,412.53
2022-09-30T16:37:56.295Z,411.69
2022-09-30T16:43:07.332Z,411.56
2022-09-30T16:48:10.853Z,410.90
2022-09-30T16:53:18.142Z,410.70
2022-09-30T16:58:25.372Z,410.86
2022-09-30T17:03:32.686Z,410.85
2022-09-30T17:08:39.924Z,410.10
2022-09-30T17:13:47.144Z,409.45
2022-09-30T17:18:54.691Z,408.87
2022-09-30T17:24:02.498Z,408.20
2022-09-30T17:29:30.943Z,407.94
2022-09-30T17:34:17.036Z,407.07
2022-09-30T17:39:24.265Z,406.74
2022-09-30T17:44:31.447Z,406.92
2022-09-30T17:49:39.451Z,406.26
2022-09-30T17:54:51.162Z,406.18
2022-09-30T17:59:53.810Z,406.30
2022-09-30T18:05:01.060Z,406.50
2022-09-30T18:10:08.603Z,406.44
2022-09-30T18:15:15.956Z,405.92
2022-09-30T18:20:25.437Z,406.03
2022-09-30T18:25:30.446Z,406.66
2022-09-30T18:30:37.691Z,406.51
2022-09-30T18:35:44.945Z,406.63
2022-09-30T18:40:52.168Z,405.84
2022-09-30T18:45:59.429Z,405.83
2022-09-30T18:51:06.545Z,405.97
2022-09-30T18:56:13.777Z,406.60
2022-09-30T19:01:21.168Z,405.83
2022-09-30T19:06:28.179Z,405.99
2022-09-30T19:11:35.995Z,405.61
2022-09-30T19:16:43.664Z,406.18
2022-09-30T19:21:50.747Z,405.74
2022-09-30T19:26:58.054Z,405.23
2022-09-30T19:32:05.489Z,405.13
2022-09-30T19:37:25.194Z,404.82
2022-09-30T19:42:20.808Z,404.68
2022-09-30T19:47:32.303Z,404.44
2022-09-30T19:52:36.035Z,404.52
2022-09-30T19:57:42.316Z,404.71
2022-09-30T20:02:49.753Z,404.10
2022-09-30T20:07:57.567Z,403.08
2022-09-30T20:13:04.984Z,402.86
2022-09-30T20:18:12.233Z,402.51
2022-09-30T20:23:19.524Z,401.76
2022-09-30T20:28:26.804Z,401.03
2022-09-30T20:33:33.911Z,400.92
2022-09-30T20:38:41.115Z,400.78
2022-09-30T20:43:48.449Z,400.15
2022-09-30T20:48:55.514Z,399.88
2022-09-30T20:54:02.664Z,400.17
2022-09-30T20:59:09.912Z,400.36
2022-09-30T21:04:17.062Z,400.47
2022-09-30T21:09:24.276Z,402.62
2022-09-30T21:14:31.493Z,402.77
2022-09-30T21:19:38.678Z,403.46
2022-09-30T21:24:45.846Z,403.56
2022-09-30T21:29:53.150Z,403.65
2022-09-30T21:35:00.356Z,403.64
2022-09-30T21:40:07.530Z,403.26
2022-09-30T21:45:14.692Z,402.56
2022-09-30T21:50:21.912Z,400.97
2022-09-30T21:55:29.115Z,400.48
2022-09-30T22:00:36.315Z,399.70
2022-09-30T22:05:43.516Z,398.34
2022-09-30T22:10:50.727Z,396.76
2022-09-30T22:15:58.440Z,396.86
2022-09-30T22:21:05.634Z,396.08
2022-09-30T22:26:12.818Z,393.79
2022-09-30T22:31:20.133Z,393.35
2022-09-30T22:36:27.222Z,393.49
2022-09-30T22:41:34.828Z,395.33
2022-09-30T22:46:41.682Z,394.92
2022-09-30T22:51:48.861Z,393.32
2022-09-30T22:56:56.060Z,393.30
2022-09-30T23:02:03.372Z,393.14
2022-09-30T23:07:10.499Z,392.48
2022-09-30T23:12:17.670Z,392.08
2022-09-30T23:17:24.854Z,391.68
2022-09-30T23:22:32.025Z,391.64
2022-09-30T23:27:39.179Z,391.39
2022-09-30T23:32:46.818Z,390.84
2022-09-30T23:37:54.006Z,390.74
2022-09-30T23:43:01.174Z,390.27
2022-09-30T23:48:08.416Z,389.73
2022-09-30T23:53:15.602Z,389.36
2022-09-30T23:58:22.812Z,389.59
